sensor_id;sensor_type;location;lat;lon;timestamp;P1;durP1;ratioP1;P2;durP2;ratioP2
5971;SDS011;3012;49.944;8.454;2024-03-22T00:00:53;14.35;;;10.85;;
5971;SDS011;3012;49.944;8.454;2024-03-22T00:03:45;15.02;;;10.02;;
5971;SDS011;3012;49.944;8.454;2024-03-22T00:06:55;13.70;;;9.70;;
5971;SDS011;3012;49.944;8.454;2024-03-22T00:09:23;12.13;;;9.88;;
5971;SDS011;3012;49.944;8.454;2024-03-22T00:11:49;15.18;;;11.07;;
5971;SDS011;3012;49.944;8.454;2024-03-22T00:14:17;14.70;;;10.05;;
5971;SDS011;3012;49.944;8.454;2024-03-22T00:16:43;13.90;;;10.23;;
5971;SDS011;3012;49.944;8.454;2024-03-22T00:19:12;14.27;;;11.55;;
5971;SDS011;3012;49.944;8.454;2024-03-22T00:21:50;15.80;;;11.30;;
5971;SDS011;3012;49.944;8.454;2024-03-22T00:24:22;13.20;;;10.65;;
5971;SDS011;3012;49.944;8.454;2024-03-22T00:26:50;15.07;;;11.75;;
5971;SDS011;3012;49.944;8.454;2024-03-22T00:29:21;17.52;;;11.55;;
5971;SDS011;3012;49.944;8.454;2024-03-22T00:31:48;15.43;;;11.80;;
5971;SDS011;3012;49.944;8.454;2024-03-22T00:34:15;15.95;;;12.00;;
5971;SDS011;3012;49.944;8.454;2024-03-22T00:36:42;16.77;;;12.38;;
5971;SDS011;3012;49.944;8.454;2024-03-22T00:39:09;15.23;;;12.20;;
5971;SDS011;3012;49.944;8.454;2024-03-22T00:41:44;15.43;;;11.57;;
5971;SDS011;3012;49.944;8.454;2024-03-22T00:44:11;14.48;;;12.13;;
5971;SDS011;3012;49.944;8.454;2024-03-22T00:46:39;16.70;;;12.25;;
5971;SDS011;3012;49.944;8.454;2024-03-22T00:49:06;19.90;;;12.20;;
5971;SDS011;3012;49.944;8.454;2024-03-22T00:51:34;14.80;;;11.43;;
5971;SDS011;3012;49.944;8.454;2024-03-22T00:57:31;31.48;;;20.90;;
5971;SDS011;3012;49.944;8.454;2024-03-22T01:02:53;28.15;;;18.50;;
5971;SDS011;3012;49.944;8.454;2024-03-22T01:05:20;21.05;;;16.50;;
5971;SDS011;3012;49.944;8.454;2024-03-22T01:07:46;21.48;;;15.68;;
5971;SDS011;3012;49.944;8.454;2024-03-22T01:10:13;22.10;;;15.05;;
5971;SDS011;3012;49.944;8.454;2024-03-22T01:12:41;22.33;;;14.82;;
5971;SDS011;3012;49.944;8.454;2024-03-22T01:15:08;21.33;;;14.70;;
5971;SDS011;3012;49.944;8.454;2024-03-22T01:17:34;24.38;;;15.23;;
5971;SDS011;3012;49.944;8.454;2024-03-22T01:20:02;21.75;;;13.85;;
5971;SDS011;3012;49.944;8.454;2024-03-22T01:22:35;16.88;;;12.70;;
5971;SDS011;3012;49.944;8.454;2024-03-22T01:25:03;18.90;;;13.80;;
5971;SDS011;3012;49.944;8.454;2024-03-22T01:27:30;15.95;;;11.68;;
5971;SDS011;3012;49.944;8.454;2024-03-22T01:30:25;19.65;;;12.85;;
5971;SDS011;3012;49.944;8.454;2024-03-22T01:32:59;16.65;;;13.18;;
5971;SDS011;3012;49.944;8.454;2024-03-22T01:38:34;18.38;;;13.10;;
5971;SDS011;3012;49.944;8.454;2024-03-22T01:41:03;19.40;;;12.75;;
5971;SDS011;3012;49.944;8.454;2024-03-22T01:43:30;19.60;;;13.90;;
5971;SDS011;3012;49.944;8.454;2024-03-22T01:45:59;18.25;;;12.85;;
5971;SDS011;3012;49.944;8.454;2024-03-22T01:48:26;20.67;;;13.00;;
5971;SDS011;3012;49.944;8.454;2024-03-22T01:50:55;17.85;;;11.63;;
5971;SDS011;3012;49.944;8.454;2024-03-22T01:56:38;19.92;;;12.40;;
5971;SDS011;3012;49.944;8.454;2024-03-22T01:59:07;17.80;;;11.80;;
5971;SDS011;3012;49.944;8.454;2024-03-22T02:01:34;17.60;;;12.90;;
5971;SDS011;3012;49.944;8.454;2024-03-22T02:04:02;19.60;;;13.13;;
5971;SDS011;3012;49.944;8.454;2024-03-22T02:06:29;14.82;;;11.65;;
5971;SDS011;3012;49.944;8.454;2024-03-22T02:08:56;15.32;;;11.93;;
5971;SDS011;3012;49.944;8.454;2024-03-22T02:11:24;18.35;;;12.65;;
5971;SDS011;3012;49.944;8.454;2024-03-22T02:13:54;16.05;;;11.27;;
5971;SDS011;3012;49.944;8.454;2024-03-22T02:16:26;15.23;;;11.95;;
5971;SDS011;3012;49.944;8.454;2024-03-22T02:19:01;17.38;;;12.05;;
5971;SDS011;3012;49.944;8.454;2024-03-22T02:29:59;17.25;;;12.15;;
5971;SDS011;3012;49.944;8.454;2024-03-22T02:32:27;19.42;;;13.45;;
5971;SDS011;3012;49.944;8.454;2024-03-22T02:34:54;17.02;;;13.02;;
5971;SDS011;3012;49.944;8.454;2024-03-22T02:37:21;20.23;;;13.50;;
5971;SDS011;3012;49.944;8.454;2024-03-22T02:39:48;20.88;;;13.30;;
5971;SDS011;3012;49.944;8.454;2024-03-22T02:42:15;23.27;;;13.45;;
5971;SDS011;3012;49.944;8.454;2024-03-22T02:44:41;19.00;;;12.03;;
5971;SDS011;3012;49.944;8.454;2024-03-22T02:47:10;16.83;;;13.73;;
5971;SDS011;3012;49.944;8.454;2024-03-22T02:49:39;18.33;;;13.13;;
5971;SDS011;3012;49.944;8.454;2024-03-22T02:52:09;16.60;;;13.25;;
5971;SDS011;3012;49.944;8.454;2024-03-22T02:54:36;18.98;;;13.95;;
5971;SDS011;3012;49.944;8.454;2024-03-22T02:59:51;23.15;;;13.98;;
5971;SDS011;3012;49.944;8.454;2024-03-22T03:02:21;18.73;;;13.65;;
5971;SDS011;3012;49.944;8.454;2024-03-22T03:04:47;19.02;;;13.43;;
5971;SDS011;3012;49.944;8.454;2024-03-22T03:07:15;17.87;;;12.93;;
5971;SDS011;3012;49.944;8.454;2024-03-22T03:09:43;15.90;;;12.33;;
5971;SDS011;3012;49.944;8.454;2024-03-22T03:12:11;21.85;;;13.98;;
5971;SDS011;3012;49.944;8.454;2024-03-22T03:14:38;18.83;;;12.45;;
5971;SDS011;3012;49.944;8.454;2024-03-22T03:17:05;20.17;;;12.95;;
5971;SDS011;3012;49.944;8.454;2024-03-22T03:19:35;19.08;;;13.32;;
5971;SDS011;3012;49.944;8.454;2024-03-22T03:22:03;22.65;;;13.75;;
5971;SDS011;3012;49.944;8.454;2024-03-22T03:24:31;21.08;;;13.32;;
5971;SDS011;3012;49.944;8.454;2024-03-22T03:29:49;19.95;;;13.88;;
5971;SDS011;3012;49.944;8.454;2024-03-22T03:32:17;19.53;;;12.33;;
5971;SDS011;3012;49.944;8.454;2024-03-22T03:37:29;19.13;;;14.13;;
5971;SDS011;3012;49.944;8.454;2024-03-22T03:39:59;18.67;;;13.68;;
5971;SDS011;3012;49.944;8.454;2024-03-22T03:42:30;18.93;;;13.73;;
5971;SDS011;3012;49.944;8.454;2024-03-22T03:45:00;22.60;;;14.57;;
5971;SDS011;3012;49.944;8.454;2024-03-22T03:47:27;17.90;;;13.13;;
5971;SDS011;3012;49.944;8.454;2024-03-22T03:49:54;20.15;;;14.45;;
5971;SDS011;3012;49.944;8.454;2024-03-22T03:52:24;21.03;;;14.23;;
5971;SDS011;3012;49.944;8.454;2024-03-22T03:54:50;19.25;;;13.70;;
5971;SDS011;3012;49.944;8.454;2024-03-22T03:57:17;25.25;;;14.02;;
5971;SDS011;3012;49.944;8.454;2024-03-22T03:59:52;21.02;;;13.73;;
5971;SDS011;3012;49.944;8.454;2024-03-22T04:02:20;20.88;;;13.57;;
5971;SDS011;3012;49.944;8.454;2024-03-22T04:04:46;19.23;;;13.98;;
5971;SDS011;3012;49.944;8.454;2024-03-22T04:07:14;20.05;;;13.98;;
5971;SDS011;3012;49.944;8.454;2024-03-22T04:09:41;18.05;;;12.85;;
5971;SDS011;3012;49.944;8.454;2024-03-22T04:12:10;18.45;;;13.18;;
5971;SDS011;3012;49.944;8.454;2024-03-22T04:14:36;21.80;;;13.50;;
5971;SDS011;3012;49.944;8.454;2024-03-22T04:17:03;18.23;;;12.85;;
5971;SDS011;3012;49.944;8.454;2024-03-22T04:22:22;18.77;;;13.52;;
5971;SDS011;3012;49.944;8.454;2024-03-22T04:24:51;17.23;;;13.52;;
5971;SDS011;3012;49.944;8.454;2024-03-22T04:27:18;23.87;;;13.67;;
5971;SDS011;3012;49.944;8.454;2024-03-22T04:29:47;15.75;;;12.65;;
5971;SDS011;3012;49.944;8.454;2024-03-22T04:32:15;20.52;;;14.50;;
5971;SDS011;3012;49.944;8.454;2024-03-22T04:34:41;18.33;;;13.57;;
5971;SDS011;3012;49.944;8.454;2024-03-22T04:37:11;21.33;;;14.33;;
5971;SDS011;3012;49.944;8.454;2024-03-22T04:39:40;24.27;;;14.67;;
5971;SDS011;3012;49.944;8.454;2024-03-22T04:42:11;20.37;;;14.37;;
5971;SDS011;3012;49.944;8.454;2024-03-22T04:44:39;20.57;;;15.20;;
5971;SDS011;3012;49.944;8.454;2024-03-22T04:51:00;21.92;;;12.85;;
5971;SDS011;3012;49.944;8.454;2024-03-22T04:54:23;23.02;;;13.77;;
5971;SDS011;3012;49.944;8.454;2024-03-22T05:05:28;22.33;;;13.52;;
5971;SDS011;3012;49.944;8.454;2024-03-22T05:09:23;23.57;;;14.40;;
5971;SDS011;3012;49.944;8.454;2024-03-22T05:11:50;17.05;;;13.05;;
5971;SDS011;3012;49.944;8.454;2024-03-22T05:14:17;19.90;;;13.15;;
5971;SDS011;3012;49.944;8.454;2024-03-22T05:16:49;20.27;;;12.52;;
5971;SDS011;3012;49.944;8.454;2024-03-22T05:19:22;21.20;;;13.07;;
5971;SDS011;3012;49.944;8.454;2024-03-22T05:21:51;21.53;;;13.33;;
5971;SDS011;3012;49.944;8.454;2024-03-22T05:24:20;16.80;;;11.93;;
5971;SDS011;3012;49.944;8.454;2024-03-22T05:26:47;18.33;;;11.75;;
5971;SDS011;3012;49.944;8.454;2024-03-22T05:29:14;19.45;;;14.18;;
5971;SDS011;3012;49.944;8.454;2024-03-22T05:31:48;17.67;;;13.30;;
5971;SDS011;3012;49.944;8.454;2024-03-22T05:34:17;18.95;;;12.48;;
5971;SDS011;3012;49.944;8.454;2024-03-22T05:36:44;21.30;;;13.35;;
5971;SDS011;3012;49.944;8.454;2024-03-22T05:39:14;17.27;;;13.23;;
5971;SDS011;3012;49.944;8.454;2024-03-22T05:41:41;17.92;;;12.45;;
5971;SDS011;3012;49.944;8.454;2024-03-22T05:44:09;16.13;;;13.10;;
5971;SDS011;3012;49.944;8.454;2024-03-22T05:46:36;19.95;;;13.10;;
5971;SDS011;3012;49.944;8.454;2024-03-22T05:49:04;22.20;;;14.18;;
5971;SDS011;3012;49.944;8.454;2024-03-22T05:51:31;17.98;;;12.27;;
5971;SDS011;3012;49.944;8.454;2024-03-22T05:57:48;19.30;;;12.40;;
5971;SDS011;3012;49.944;8.454;2024-03-22T06:00:21;16.17;;;11.98;;
5971;SDS011;3012;49.944;8.454;2024-03-22T06:02:51;21.88;;;12.85;;
5971;SDS011;3012;49.944;8.454;2024-03-22T06:05:20;19.08;;;13.63;;
5971;SDS011;3012;49.944;8.454;2024-03-22T06:07:47;21.35;;;12.55;;
5971;SDS011;3012;49.944;8.454;2024-03-22T06:10:15;20.35;;;12.43;;
5971;SDS011;3012;49.944;8.454;2024-03-22T06:12:42;21.88;;;12.68;;
5971;SDS011;3012;49.944;8.454;2024-03-22T06:15:14;19.70;;;12.30;;
5971;SDS011;3012;49.944;8.454;2024-03-22T06:17:41;16.85;;;12.25;;
5971;SDS011;3012;49.944;8.454;2024-03-22T06:20:13;18.45;;;12.63;;
5971;SDS011;3012;49.944;8.454;2024-03-22T06:26:45;22.33;;;11.40;;
5971;SDS011;3012;49.944;8.454;2024-03-22T06:29:12;16.63;;;11.65;;
5971;SDS011;3012;49.944;8.454;2024-03-22T06:31:40;19.50;;;11.55;;
5971;SDS011;3012;49.944;8.454;2024-03-22T06:34:09;18.48;;;12.35;;
5971;SDS011;3012;49.944;8.454;2024-03-22T06:36:37;19.27;;;12.25;;
5971;SDS011;3012;49.944;8.454;2024-03-22T06:39:05;16.20;;;11.43;;
5971;SDS011;3012;49.944;8.454;2024-03-22T06:41:34;19.33;;;11.63;;
5971;SDS011;3012;49.944;8.454;2024-03-22T06:44:08;17.17;;;12.63;;
5971;SDS011;3012;49.944;8.454;2024-03-22T06:46:37;17.45;;;10.52;;
5971;SDS011;3012;49.944;8.454;2024-03-22T06:49:06;18.05;;;11.73;;
5971;SDS011;3012;49.944;8.454;2024-03-22T06:51:35;20.38;;;11.98;;
5971;SDS011;3012;49.944;8.454;2024-03-22T06:54:04;15.70;;;10.90;;
5971;SDS011;3012;49.944;8.454;2024-03-22T06:56:32;12.25;;;10.27;;
5971;SDS011;3012;49.944;8.454;2024-03-22T06:59:00;13.57;;;11.00;;
5971;SDS011;3012;49.944;8.454;2024-03-22T07:01:28;13.82;;;10.85;;
5971;SDS011;3012;49.944;8.454;2024-03-22T07:07:11;28.88;;;17.55;;
5971;SDS011;3012;49.944;8.454;2024-03-22T07:12:58;15.13;;;10.77;;
5971;SDS011;3012;49.944;8.454;2024-03-22T07:15:26;15.07;;;11.00;;
5971;SDS011;3012;49.944;8.454;2024-03-22T07:17:53;13.05;;;10.50;;
5971;SDS011;3012;49.944;8.454;2024-03-22T07:20:27;15.80;;;10.50;;
5971;SDS011;3012;49.944;8.454;2024-03-22T07:22:55;21.00;;;11.20;;
5971;SDS011;3012;49.944;8.454;2024-03-22T07:25:31;15.40;;;10.23;;
5971;SDS011;3012;49.944;8.454;2024-03-22T07:27:58;14.25;;;9.73;;
5971;SDS011;3012;49.944;8.454;2024-03-22T07:37:06;16.30;;;10.43;;
5971;SDS011;3012;49.944;8.454;2024-03-22T07:46:01;9.95;;;7.88;;
5971;SDS011;3012;49.944;8.454;2024-03-22T07:48:46;11.43;;;8.73;;
5971;SDS011;3012;49.944;8.454;2024-03-22T07:51:13;12.60;;;9.35;;
5971;SDS011;3012;49.944;8.454;2024-03-22T07:53:46;9.80;;;8.15;;
5971;SDS011;3012;49.944;8.454;2024-03-22T07:56:29;15.52;;;8.73;;
5971;SDS011;3012;49.944;8.454;2024-03-22T07:59:03;14.55;;;9.20;;
5971;SDS011;3012;49.944;8.454;2024-03-22T08:01:30;10.93;;;8.68;;
5971;SDS011;3012;49.944;8.454;2024-03-22T08:07:41;13.98;;;10.02;;
5971;SDS011;3012;49.944;8.454;2024-03-22T08:10:08;18.38;;;9.57;;
5971;SDS011;3012;49.944;8.454;2024-03-22T08:12:36;15.48;;;9.93;;
5971;SDS011;3012;49.944;8.454;2024-03-22T08:17:58;16.13;;;11.20;;
5971;SDS011;3012;49.944;8.454;2024-03-22T08:20:25;17.30;;;11.00;;
5971;SDS011;3012;49.944;8.454;2024-03-22T08:22:53;18.65;;;11.82;;
5971;SDS011;3012;49.944;8.454;2024-03-22T08:29:53;19.95;;;11.65;;
5971;SDS011;3012;49.944;8.454;2024-03-22T08:32:25;20.33;;;11.77;;
5971;SDS011;3012;49.944;8.454;2024-03-22T08:34:53;14.43;;;10.35;;
5971;SDS011;3012;49.944;8.454;2024-03-22T08:37:23;17.10;;;10.88;;
5971;SDS011;3012;49.944;8.454;2024-03-22T08:39:51;13.95;;;11.10;;
5971;SDS011;3012;49.944;8.454;2024-03-22T08:42:18;14.30;;;10.73;;
5971;SDS011;3012;49.944;8.454;2024-03-22T08:44:45;19.67;;;10.63;;
5971;SDS011;3012;49.944;8.454;2024-03-22T08:47:16;14.18;;;10.10;;
5971;SDS011;3012;49.944;8.454;2024-03-22T08:50:02;12.95;;;10.05;;
5971;SDS011;3012;49.944;8.454;2024-03-22T08:52:28;16.60;;;10.82;;
5971;SDS011;3012;49.944;8.454;2024-03-22T08:58:05;16.13;;;10.15;;
5971;SDS011;3012;49.944;8.454;2024-03-22T09:06:35;13.70;;;10.40;;
5971;SDS011;3012;49.944;8.454;2024-03-22T09:09:22;17.90;;;10.05;;
5971;SDS011;3012;49.944;8.454;2024-03-22T09:12:03;10.13;;;9.00;;
5971;SDS011;3012;49.944;8.454;2024-03-22T09:14:42;16.33;;;9.00;;
5971;SDS011;3012;49.944;8.454;2024-03-22T09:17:15;13.02;;;9.27;;
5971;SDS011;3012;49.944;8.454;2024-03-22T09:19:43;13.02;;;9.20;;
5971;SDS011;3012;49.944;8.454;2024-03-22T09:22:11;12.48;;;9.38;;
5971;SDS011;3012;49.944;8.454;2024-03-22T09:24:41;15.13;;;10.13;;
5971;SDS011;3012;49.944;8.454;2024-03-22T09:27:09;12.65;;;9.93;;
5971;SDS011;3012;49.944;8.454;2024-03-22T09:29:51;13.82;;;10.25;;
5971;SDS011;3012;49.944;8.454;2024-03-22T09:32:18;12.55;;;9.18;;
5971;SDS011;3012;49.944;8.454;2024-03-22T09:34:49;12.25;;;8.95;;
5971;SDS011;3012;49.944;8.454;2024-03-22T09:37:16;11.68;;;9.82;;
5971;SDS011;3012;49.944;8.454;2024-03-22T09:39:44;14.85;;;10.65;;
5971;SDS011;3012;49.944;8.454;2024-03-22T09:42:13;13.15;;;9.98;;
5971;SDS011;3012;49.944;8.454;2024-03-22T09:44:44;13.65;;;8.60;;
5971;SDS011;3012;49.944;8.454;2024-03-22T09:47:16;13.93;;;10.93;;
5971;SDS011;3012;49.944;8.454;2024-03-22T09:49:55;15.77;;;11.20;;
5971;SDS011;3012;49.944;8.454;2024-03-22T09:53:09;13.50;;;8.93;;
5971;SDS011;3012;49.944;8.454;2024-03-22T09:55:37;10.30;;;7.97;;
5971;SDS011;3012;49.944;8.454;2024-03-22T09:58:08;9.10;;;7.65;;
5971;SDS011;3012;49.944;8.454;2024-03-22T10:00:49;8.68;;;7.43;;
5971;SDS011;3012;49.944;8.454;2024-03-22T10:03:17;11.35;;;8.25;;
5971;SDS011;3012;49.944;8.454;2024-03-22T10:05:53;12.18;;;7.68;;
5971;SDS011;3012;49.944;8.454;2024-03-22T10:08:19;9.18;;;7.63;;
5971;SDS011;3012;49.944;8.454;2024-03-22T10:10:47;9.85;;;6.90;;
5971;SDS011;3012;49.944;8.454;2024-03-22T10:13:15;8.73;;;7.55;;
5971;SDS011;3012;49.944;8.454;2024-03-22T10:15:49;8.20;;;7.28;;
5971;SDS011;3012;49.944;8.454;2024-03-22T10:18:15;14.02;;;7.65;;
5971;SDS011;3012;49.944;8.454;2024-03-22T10:20:59;11.05;;;8.70;;
5971;SDS011;3012;49.944;8.454;2024-03-22T10:23:26;9.38;;;7.00;;
5971;SDS011;3012;49.944;8.454;2024-03-22T10:25:55;7.43;;;6.63;;
5971;SDS011;3012;49.944;8.454;2024-03-22T10:28:22;9.15;;;6.03;;
5971;SDS011;3012;49.944;8.454;2024-03-22T10:30:53;9.57;;;6.65;;
5971;SDS011;3012;49.944;8.454;2024-03-22T10:33:33;9.55;;;6.88;;
5971;SDS011;3012;49.944;8.454;2024-03-22T10:36:02;7.57;;;6.45;;
5971;SDS011;3012;49.944;8.454;2024-03-22T10:38:29;8.88;;;6.28;;
5971;SDS011;3012;49.944;8.454;2024-03-22T10:40:58;12.93;;;6.75;;
5971;SDS011;3012;49.944;8.454;2024-03-22T10:43:25;12.68;;;7.07;;
5971;SDS011;3012;49.944;8.454;2024-03-22T10:45:56;8.70;;;7.05;;
5971;SDS011;3012;49.944;8.454;2024-03-22T10:48:29;8.00;;;7.07;;
5971;SDS011;3012;49.944;8.454;2024-03-22T10:50:59;9.45;;;6.28;;
5971;SDS011;3012;49.944;8.454;2024-03-22T10:53:30;6.50;;;5.88;;
5971;SDS011;3012;49.944;8.454;2024-03-22T10:55:59;14.27;;;7.38;;
5971;SDS011;3012;49.944;8.454;2024-03-22T10:58:28;10.55;;;6.40;;
5971;SDS011;3012;49.944;8.454;2024-03-22T11:00:56;6.97;;;6.20;;
5971;SDS011;3012;49.944;8.454;2024-03-22T11:03:22;12.05;;;7.47;;
5971;SDS011;3012;49.944;8.454;2024-03-22T11:05:54;7.60;;;6.82;;
5971;SDS011;3012;49.944;8.454;2024-03-22T11:08:24;10.02;;;6.88;;
5971;SDS011;3012;49.944;8.454;2024-03-22T11:10:54;11.55;;;6.25;;
5971;SDS011;3012;49.944;8.454;2024-03-22T11:13:22;10.02;;;6.28;;
5971;SDS011;3012;49.944;8.454;2024-03-22T11:15:50;7.78;;;5.68;;
5971;SDS011;3012;49.944;8.454;2024-03-22T11:18:17;7.82;;;6.07;;
5971;SDS011;3012;49.944;8.454;2024-03-22T11:20:50;9.65;;;5.78;;
5971;SDS011;3012;49.944;8.454;2024-03-22T11:23:19;6.60;;;6.00;;
5971;SDS011;3012;49.944;8.454;2024-03-22T11:25:46;6.95;;;5.80;;
5971;SDS011;3012;49.944;8.454;2024-03-22T11:28:15;7.00;;;5.03;;
5971;SDS011;3012;49.944;8.454;2024-03-22T11:30:44;9.60;;;5.80;;
5971;SDS011;3012;49.944;8.454;2024-03-22T11:33:10;6.55;;;5.68;;
5971;SDS011;3012;49.944;8.454;2024-03-22T11:35:38;8.02;;;5.13;;
5971;SDS011;3012;49.944;8.454;2024-03-22T11:38:04;8.25;;;5.38;;
5971;SDS011;3012;49.944;8.454;2024-03-22T11:40:31;10.30;;;6.13;;
5971;SDS011;3012;49.944;8.454;2024-03-22T11:43:00;7.85;;;5.80;;
5971;SDS011;3012;49.944;8.454;2024-03-22T11:45:31;14.05;;;6.13;;
5971;SDS011;3012;49.944;8.454;2024-03-22T11:48:01;7.70;;;5.90;;
5971;SDS011;3012;49.944;8.454;2024-03-22T11:50:30;7.43;;;5.65;;
5971;SDS011;3012;49.944;8.454;2024-03-22T11:52:56;11.25;;;5.60;;
5971;SDS011;3012;49.944;8.454;2024-03-22T11:55:26;7.68;;;5.78;;
5971;SDS011;3012;49.944;8.454;2024-03-22T11:57:53;8.35;;;6.22;;
5971;SDS011;3012;49.944;8.454;2024-03-22T12:00:20;12.88;;;7.47;;
5971;SDS011;3012;49.944;8.454;2024-03-22T12:02:49;8.27;;;5.97;;
5971;SDS011;3012;49.944;8.454;2024-03-22T12:05:18;13.98;;;6.35;;
5971;SDS011;3012;49.944;8.454;2024-03-22T12:07:47;8.82;;;5.90;;
5971;SDS011;3012;49.944;8.454;2024-03-22T12:10:18;9.80;;;6.15;;
5971;SDS011;3012;49.944;8.454;2024-03-22T12:12:48;7.22;;;6.53;;
5971;SDS011;3012;49.944;8.454;2024-03-22T12:15:15;9.80;;;6.80;;
5971;SDS011;3012;49.944;8.454;2024-03-22T12:17:41;9.32;;;6.90;;
5971;SDS011;3012;49.944;8.454;2024-03-22T12:20:11;9.60;;;6.55;;
5971;SDS011;3012;49.944;8.454;2024-03-22T12:22:40;11.13;;;7.25;;
5971;SDS011;3012;49.944;8.454;2024-03-22T12:25:09;9.50;;;6.45;;
5971;SDS011;3012;49.944;8.454;2024-03-22T12:27:37;8.18;;;6.57;;
5971;SDS011;3012;49.944;8.454;2024-03-22T12:30:11;9.18;;;7.40;;
5971;SDS011;3012;49.944;8.454;2024-03-22T12:32:40;9.23;;;7.35;;
5971;SDS011;3012;49.944;8.454;2024-03-22T12:35:08;10.10;;;8.50;;
5971;SDS011;3012;49.944;8.454;2024-03-22T12:37:35;8.50;;;7.15;;
5971;SDS011;3012;49.944;8.454;2024-03-22T12:40:02;9.65;;;7.40;;
5971;SDS011;3012;49.944;8.454;2024-03-22T12:42:34;7.50;;;6.07;;
5971;SDS011;3012;49.944;8.454;2024-03-22T12:45:02;7.13;;;5.90;;
5971;SDS011;3012;49.944;8.454;2024-03-22T12:47:35;12.57;;;7.60;;
5971;SDS011;3012;49.944;8.454;2024-03-22T12:50:04;10.38;;;7.05;;
5971;SDS011;3012;49.944;8.454;2024-03-22T12:52:31;12.80;;;8.10;;
5971;SDS011;3012;49.944;8.454;2024-03-22T12:55:02;12.23;;;7.40;;
5971;SDS011;3012;49.944;8.454;2024-03-22T12:57:29;9.68;;;7.25;;
5971;SDS011;3012;49.944;8.454;2024-03-22T12:59:58;8.38;;;7.30;;
5971;SDS011;3012;49.944;8.454;2024-03-22T13:02:24;14.60;;;7.95;;
5971;SDS011;3012;49.944;8.454;2024-03-22T13:04:52;12.85;;;8.35;;
5971;SDS011;3012;49.944;8.454;2024-03-22T13:07:20;12.48;;;8.50;;
5971;SDS011;3012;49.944;8.454;2024-03-22T13:09:49;14.68;;;8.10;;
5971;SDS011;3012;49.944;8.454;2024-03-22T13:12:17;8.30;;;7.03;;
5971;SDS011;3012;49.944;8.454;2024-03-22T13:14:44;9.70;;;7.32;;
5971;SDS011;3012;49.944;8.454;2024-03-22T13:17:15;9.65;;;6.50;;
5971;SDS011;3012;49.944;8.454;2024-03-22T13:19:43;12.23;;;8.20;;
5971;SDS011;3012;49.944;8.454;2024-03-22T13:24:44;14.40;;;8.40;;
5971;SDS011;3012;49.944;8.454;2024-03-22T13:27:12;12.90;;;8.02;;
5971;SDS011;3012;49.944;8.454;2024-03-22T13:29:42;12.52;;;8.25;;
5971;SDS011;3012;49.944;8.454;2024-03-22T13:32:09;12.55;;;8.35;;
5971;SDS011;3012;49.944;8.454;2024-03-22T13:34:38;11.02;;;9.07;;
5971;SDS011;3012;49.944;8.454;2024-03-22T13:37:04;10.07;;;8.30;;
5971;SDS011;3012;49.944;8.454;2024-03-22T13:39:33;10.93;;;8.63;;
5971;SDS011;3012;49.944;8.454;2024-03-22T13:41:59;15.40;;;8.77;;
5971;SDS011;3012;49.944;8.454;2024-03-22T13:44:32;13.48;;;9.30;;
5971;SDS011;3012;49.944;8.454;2024-03-22T13:47:00;11.18;;;9.38;;
5971;SDS011;3012;49.944;8.454;2024-03-22T13:49:27;14.15;;;9.77;;
5971;SDS011;3012;49.944;8.454;2024-03-22T13:51:53;11.70;;;10.40;;
5971;SDS011;3012;49.944;8.454;2024-03-22T13:54:20;14.80;;;11.05;;
5971;SDS011;3012;49.944;8.454;2024-03-22T13:56:47;18.52;;;11.30;;
5971;SDS011;3012;49.944;8.454;2024-03-22T13:59:16;15.27;;;11.23;;
5971;SDS011;3012;49.944;8.454;2024-03-22T14:01:42;18.85;;;12.02;;
5971;SDS011;3012;49.944;8.454;2024-03-22T14:04:14;19.27;;;11.77;;
5971;SDS011;3012;49.944;8.454;2024-03-22T14:06:41;16.45;;;10.82;;
5971;SDS011;3012;49.944;8.454;2024-03-22T14:09:08;19.75;;;11.05;;
5971;SDS011;3012;49.944;8.454;2024-03-22T14:11:35;17.33;;;10.98;;
5971;SDS011;3012;49.944;8.454;2024-03-22T14:14:03;19.77;;;12.50;;
5971;SDS011;3012;49.944;8.454;2024-03-22T14:16:29;14.80;;;10.70;;
5971;SDS011;3012;49.944;8.454;2024-03-22T14:18:56;19.25;;;12.00;;
5971;SDS011;3012;49.944;8.454;2024-03-22T14:21:24;18.20;;;10.77;;
5971;SDS011;3012;49.944;8.454;2024-03-22T14:23:52;17.33;;;12.40;;
5971;SDS011;3012;49.944;8.454;2024-03-22T14:26:20;17.40;;;13.38;;
5971;SDS011;3012;49.944;8.454;2024-03-22T14:28:50;18.33;;;11.50;;
5971;SDS011;3012;49.944;8.454;2024-03-22T14:31:18;16.25;;;11.80;;
5971;SDS011;3012;49.944;8.454;2024-03-22T14:33:47;19.77;;;12.15;;
5971;SDS011;3012;49.944;8.454;2024-03-22T14:36:14;20.50;;;11.65;;
5971;SDS011;3012;49.944;8.454;2024-03-22T14:38:47;19.23;;;13.25;;
5971;SDS011;3012;49.944;8.454;2024-03-22T14:41:13;21.30;;;13.05;;
5971;SDS011;3012;49.944;8.454;2024-03-22T14:43:42;16.98;;;13.30;;
5971;SDS011;3012;49.944;8.454;2024-03-22T14:46:09;23.92;;;16.25;;
5971;SDS011;3012;49.944;8.454;2024-03-22T14:48:36;17.90;;;13.75;;
5971;SDS011;3012;49.944;8.454;2024-03-22T14:51:03;19.08;;;12.27;;
5971;SDS011;3012;49.944;8.454;2024-03-22T14:53:32;21.85;;;13.40;;
5971;SDS011;3012;49.944;8.454;2024-03-22T14:56:00;16.98;;;12.13;;
5971;SDS011;3012;49.944;8.454;2024-03-22T14:58:29;19.58;;;13.35;;
5971;SDS011;3012;49.944;8.454;2024-03-22T15:00:56;15.90;;;10.27;;
5971;SDS011;3012;49.944;8.454;2024-03-22T15:03:27;14.82;;;11.05;;
5971;SDS011;3012;49.944;8.454;2024-03-22T15:05:53;14.95;;;10.48;;
5971;SDS011;3012;49.944;8.454;2024-03-22T15:08:24;19.60;;;11.50;;
5971;SDS011;3012;49.944;8.454;2024-03-22T15:10:50;16.75;;;11.02;;
5971;SDS011;3012;49.944;8.454;2024-03-22T15:13:19;14.55;;;11.05;;
5971;SDS011;3012;49.944;8.454;2024-03-22T15:15:51;14.38;;;9.50;;
5971;SDS011;3012;49.944;8.454;2024-03-22T15:18:19;11.88;;;9.98;;
5971;SDS011;3012;49.944;8.454;2024-03-22T15:20:47;16.83;;;10.43;;
5971;SDS011;3012;49.944;8.454;2024-03-22T15:23:17;18.02;;;11.45;;
5971;SDS011;3012;49.944;8.454;2024-03-22T15:25:46;14.77;;;11.43;;
5971;SDS011;3012;49.944;8.454;2024-03-22T15:28:14;13.98;;;10.90;;
5971;SDS011;3012;49.944;8.454;2024-03-22T15:30:41;13.30;;;9.63;;
5971;SDS011;3012;49.944;8.454;2024-03-22T15:33:10;22.02;;;12.68;;
5971;SDS011;3012;49.944;8.454;2024-03-22T15:35:36;19.00;;;10.98;;
5971;SDS011;3012;49.944;8.454;2024-03-22T15:38:06;19.83;;;11.05;;
5971;SDS011;3012;49.944;8.454;2024-03-22T15:40:36;12.82;;;9.95;;
5971;SDS011;3012;49.944;8.454;2024-03-22T15:43:05;14.57;;;10.93;;
5971;SDS011;3012;49.944;8.454;2024-03-22T15:45:34;14.50;;;11.55;;
5971;SDS011;3012;49.944;8.454;2024-03-22T15:48:06;17.88;;;11.05;;
5971;SDS011;3012;49.944;8.454;2024-03-22T15:50:33;14.52;;;10.55;;
5971;SDS011;3012;49.944;8.454;2024-03-22T15:53:05;11.95;;;10.73;;
5971;SDS011;3012;49.944;8.454;2024-03-22T15:55:34;14.25;;;9.95;;
5971;SDS011;3012;49.944;8.454;2024-03-22T15:58:04;15.70;;;11.13;;
5971;SDS011;3012;49.944;8.454;2024-03-22T16:00:32;17.80;;;11.63;;
5971;SDS011;3012;49.944;8.454;2024-03-22T16:03:00;15.95;;;11.00;;
5971;SDS011;3012;49.944;8.454;2024-03-22T16:05:30;14.05;;;11.70;;
5971;SDS011;3012;49.944;8.454;2024-03-22T16:08:04;16.75;;;11.75;;
5971;SDS011;3012;49.944;8.454;2024-03-22T16:10:33;17.90;;;11.88;;
5971;SDS011;3012;49.944;8.454;2024-03-22T16:13:00;13.10;;;11.70;;
5971;SDS011;3012;49.944;8.454;2024-03-22T16:15:28;15.93;;;11.88;;
5971;SDS011;3012;49.944;8.454;2024-03-22T16:17:55;19.02;;;12.40;;
5971;SDS011;3012;49.944;8.454;2024-03-22T16:20:21;18.08;;;12.13;;
5971;SDS011;3012;49.944;8.454;2024-03-22T16:22:50;16.02;;;10.98;;
5971;SDS011;3012;49.944;8.454;2024-03-22T16:25:16;15.68;;;10.98;;
5971;SDS011;3012;49.944;8.454;2024-03-22T16:27:43;16.33;;;11.60;;
5971;SDS011;3012;49.944;8.454;2024-03-22T16:30:10;15.52;;;11.02;;
5971;SDS011;3012;49.944;8.454;2024-03-22T16:32:37;17.65;;;11.20;;
5971;SDS011;3012;49.944;8.454;2024-03-22T16:35:04;18.80;;;11.85;;
5971;SDS011;3012;49.944;8.454;2024-03-22T16:37:35;17.77;;;12.07;;
5971;SDS011;3012;49.944;8.454;2024-03-22T16:40:02;21.90;;;11.13;;
5971;SDS011;3012;49.944;8.454;2024-03-22T16:42:31;14.60;;;12.15;;
5971;SDS011;3012;49.944;8.454;2024-03-22T16:44:59;19.42;;;12.73;;